createdAt,value
2022-11-08T00:00:15.455Z,2.80
2022-11-08T00:02:43.814Z,2.80
2022-11-08T00:05:29.951Z,3.23
2022-11-08T00:08:16.530Z,2.87
2022-11-08T00:11:04.121Z,2.83
2022-11-08T00:13:50.128Z,2.37
2022-11-08T00:16:19.784Z,2.60
2022-11-08T00:18:48.691Z,2.87
2022-11-08T00:21:16.925Z,2.57
2022-11-08T00:23:45.147Z,3.43
2022-11-08T00:26:13.382Z,2.60
2022-11-08T00:28:41.626Z,2.33
2022-11-08T00:31:09.965Z,2.60
2022-11-08T00:33:39.646Z,2.40
2022-11-08T00:36:08.108Z,2.50
2022-11-08T00:38:36.406Z,2.80
2022-11-08T00:41:04.643Z,2.90
2022-11-08T00:43:33.287Z,2.60
2022-11-08T00:46:01.511Z,3.20
2022-11-08T00:48:29.841Z,2.77
2022-11-08T00:51:01.983Z,2.90
2022-11-08T00:53:30.403Z,2.37
2022-11-08T00:56:02.142Z,3.03
2022-11-08T00:58:30.591Z,2.77
2022-11-08T01:00:58.979Z,3.17
2022-11-08T01:03:27.806Z,3.07
2022-11-08T01:05:56.481Z,3.33
2022-11-08T01:08:26.141Z,3.00
2022-11-08T01:10:54.623Z,2.90
2022-11-08T01:13:23.968Z,2.90
2022-11-08T01:15:52.303Z,2.60
2022-11-08T01:18:21.229Z,3.27
2022-11-08T01:20:50.700Z,2.80
2022-11-08T01:23:19.546Z,2.90
2022-11-08T01:25:49.868Z,3.17
2022-11-08T01:28:18.557Z,3.23
2022-11-08T01:30:47.352Z,3.80
2022-11-08T01:33:16.182Z,2.80
2022-11-08T01:35:46.135Z,3.33
2022-11-08T01:38:14.507Z,3.00
2022-11-08T01:40:46.606Z,2.63
2022-11-08T01:43:31.836Z,3.33
2022-11-08T01:46:17.784Z,3.03
2022-11-08T01:48:48.313Z,2.87
2022-11-08T01:51:18.110Z,3.37
2022-11-08T01:53:46.601Z,2.87
2022-11-08T01:56:15.280Z,2.90
2022-11-08T01:58:46.050Z,2.63
2022-11-08T02:01:14.732Z,2.97
2022-11-08T02:03:43.419Z,2.90
2022-11-08T02:06:12.549Z,2.90
2022-11-08T02:08:41.706Z,3.47
2022-11-08T02:11:10.465Z,2.90
2022-11-08T02:13:39.290Z,3.27
2022-11-08T02:16:12.373Z,2.60
2022-11-08T02:18:40.791Z,2.77
2022-11-08T02:21:12.423Z,2.80
2022-11-08T02:23:47.146Z,2.70
2022-11-08T02:26:15.717Z,3.00
2022-11-08T02:28:44.451Z,3.03
2022-11-08T02:31:13.003Z,3.23
2022-11-08T02:33:41.802Z,3.17
2022-11-08T02:36:11.219Z,2.70
2022-11-08T02:38:40.863Z,2.67
2022-11-08T02:41:10.621Z,2.97
2022-11-08T02:43:38.814Z,2.87
2022-11-08T02:46:07.226Z,2.67
2022-11-08T02:48:35.534Z,2.60
2022-11-08T02:51:03.715Z,2.90
2022-11-08T02:53:31.987Z,2.83
2022-11-08T02:56:00.193Z,2.90
2022-11-08T02:58:29.799Z,2.70
2022-11-08T03:01:00.249Z,2.47
2022-11-08T03:03:28.622Z,2.77
2022-11-08T03:05:57.984Z,2.80
2022-11-08T03:08:26.191Z,2.80
2022-11-08T03:10:54.396Z,2.40
2022-11-08T03:13:22.599Z,2.57
2022-11-08T03:15:52.331Z,2.30
2022-11-08T03:18:20.615Z,2.93
2022-11-08T03:20:49.069Z,2.93
2022-11-08T03:23:17.261Z,2.50
2022-11-08T03:25:45.409Z,2.50
2022-11-08T03:28:13.604Z,2.83
2022-11-08T03:30:41.809Z,2.30
2022-11-08T03:33:11.576Z,3.00
2022-11-08T03:35:39.776Z,2.77
2022-11-08T03:38:08.013Z,2.37
2022-11-08T03:40:36.196Z,2.40
2022-11-08T03:43:04.465Z,2.33
2022-11-08T03:45:32.670Z,2.50
2022-11-08T03:48:00.954Z,2.80
2022-11-08T03:50:30.489Z,2.63
2022-11-08T03:52:58.682Z,2.70
2022-11-08T03:55:27.829Z,2.20
2022-11-08T03:57:56.327Z,2.50
2022-11-08T04:00:25.283Z,2.80
2022-11-08T04:02:53.600Z,2.50
2022-11-08T04:05:21.799Z,2.90
2022-11-08T04:07:51.329Z,2.30
2022-11-08T04:10:19.623Z,2.00
2022-11-08T04:13:05.386Z,2.30
2022-11-08T04:15:33.671Z,2.57
2022-11-08T04:18:20.064Z,2.40
2022-11-08T04:21:06.956Z,2.63
2022-11-08T04:23:37.313Z,3.50
2022-11-08T04:26:06.895Z,2.97
2022-11-08T04:28:35.883Z,2.67
2022-11-08T04:31:04.917Z,2.73
2022-11-08T04:33:33.489Z,3.37
2022-11-08T04:36:03.939Z,3.03
2022-11-08T04:38:32.566Z,2.83
2022-11-08T04:41:03.736Z,2.67
2022-11-08T04:43:32.263Z,2.57
2022-11-08T04:46:01.125Z,2.53
2022-11-08T04:48:29.489Z,2.80
2022-11-08T04:50:57.708Z,2.83
2022-11-08T04:53:25.933Z,2.60
2022-11-08T04:55:54.150Z,2.93
2022-11-08T04:58:23.724Z,2.77
2022-11-08T05:00:52.314Z,2.43
2022-11-08T05:03:20.518Z,2.30
2022-11-08T05:05:48.728Z,2.50
2022-11-08T05:08:17.248Z,2.57
2022-11-08T05:10:45.564Z,1.97
2022-11-08T05:13:13.810Z,2.77
2022-11-08T05:15:43.409Z,2.00
2022-11-08T05:18:11.623Z,2.33
2022-11-08T05:20:57.648Z,2.50
2022-11-08T05:23:25.867Z,2.40
2022-11-08T05:25:54.863Z,2.20
2022-11-08T05:28:23.696Z,2.53
2022-11-08T05:30:57.938Z,2.27
2022-11-08T05:33:27.159Z,2.30
2022-11-08T05:35:55.386Z,2.20
2022-11-08T05:38:23.727Z,2.20
2022-11-08T05:40:51.947Z,2.20
2022-11-08T05:43:20.591Z,2.27
2022-11-08T05:45:49.076Z,2.30
2022-11-08T05:48:19.039Z,2.10
2022-11-08T05:50:47.472Z,2.00
2022-11-08T05:53:16.078Z,2.00
2022-11-08T05:55:44.553Z,2.80
2022-11-08T05:58:12.857Z,2.10
2022-11-08T06:00:41.170Z,2.17
2022-11-08T06:03:09.618Z,2.50
2022-11-08T06:05:39.258Z,2.20
2022-11-08T06:08:07.525Z,2.30
2022-11-08T06:10:35.715Z,2.23
2022-11-08T06:13:03.950Z,2.23
2022-11-08T06:15:32.265Z,2.37
2022-11-08T06:18:03.092Z,2.10
2022-11-08T06:20:31.380Z,2.10
2022-11-08T06:23:01.196Z,2.13
2022-11-08T06:25:29.551Z,1.90
2022-11-08T06:27:57.831Z,2.20
2022-11-08T06:30:26.029Z,1.90
2022-11-08T06:32:54.222Z,2.10
2022-11-08T06:35:22.421Z,2.47
2022-11-08T06:37:50.649Z,2.00
2022-11-08T06:40:20.382Z,2.03
2022-11-08T06:42:48.756Z,2.20
2022-11-08T06:45:17.068Z,1.90
2022-11-08T06:47:45.329Z,3.07
2022-11-08T06:50:13.610Z,2.20
2022-11-08T06:52:41.839Z,2.27
2022-11-08T06:55:10.240Z,2.30
2022-11-08T06:57:39.805Z,1.90
2022-11-08T07:00:08.585Z,1.70
2022-11-08T07:02:36.935Z,2.13
2022-11-08T07:05:05.285Z,2.23
2022-11-08T07:07:33.514Z,2.43
2022-11-08T07:10:03.955Z,4.93
2022-11-08T07:12:32.489Z,2.10
2022-11-08T07:15:02.116Z,2.20
2022-11-08T07:17:34.275Z,1.70
2022-11-08T07:20:06.009Z,2.03
2022-11-08T07:22:34.216Z,1.70
2022-11-08T07:25:02.419Z,2.27
2022-11-08T07:27:30.706Z,2.17
2022-11-08T07:29:59.849Z,2.30
2022-11-08T07:32:29.663Z,2.30
2022-11-08T07:34:58.905Z,2.30
2022-11-08T07:37:27.453Z,2.13
2022-11-08T07:39:55.778Z,2.30
2022-11-08T07:42:24.053Z,2.10
2022-11-08T07:44:52.265Z,2.13
2022-11-08T07:47:20.688Z,2.33
2022-11-08T07:49:50.307Z,2.23
2022-11-08T07:52:18.855Z,2.50
2022-11-08T07:54:47.127Z,2.10
2022-11-08T07:57:15.568Z,2.20
2022-11-08T07:59:43.805Z,2.13
2022-11-08T08:02:12.374Z,2.20
2022-11-08T08:04:40.656Z,2.50
2022-11-08T08:07:12.351Z,2.10
2022-11-08T08:09:41.102Z,2.30
2022-11-08T08:12:09.345Z,2.10
2022-11-08T08:14:37.575Z,2.40
2022-11-08T08:17:05.818Z,2.17
2022-11-08T08:19:34.045Z,2.50
2022-11-08T08:22:02.299Z,2.00
2022-11-08T08:24:31.907Z,1.83
2022-11-08T08:27:00.346Z,2.13
2022-11-08T08:29:28.664Z,2.00
2022-11-08T08:31:57.414Z,2.13
2022-11-08T08:34:25.616Z,2.37
2022-11-08T08:36:53.979Z,1.90
2022-11-08T08:39:22.303Z,2.07
2022-11-08T08:41:51.909Z,2.00
2022-11-08T08:44:20.168Z,2.00
2022-11-08T08:46:48.436Z,2.27
2022-11-08T08:49:16.679Z,1.97
2022-11-08T08:51:44.907Z,1.80
2022-11-08T08:54:14.731Z,2.33
2022-11-08T08:56:43.055Z,1.73
2022-11-08T09:02:02.121Z,1.50
2022-11-08T09:04:30.551Z,1.93
2022-11-08T09:06:58.868Z,2.00
2022-11-08T09:09:27.275Z,2.10
2022-11-08T09:12:01.664Z,1.80
2022-11-08T09:14:31.630Z,2.40
2022-11-08T09:17:00.125Z,2.50
2022-11-08T09:19:28.618Z,1.63
2022-11-08T09:21:56.931Z,1.90
2022-11-08T09:24:25.399Z,1.40
2022-11-08T09:26:53.716Z,1.40
2022-11-08T09:29:22.093Z,1.70
2022-11-08T09:31:51.879Z,1.83
2022-11-08T09:34:21.687Z,1.33
2022-11-08T09:36:50.476Z,1.53
2022-11-08T09:39:18.919Z,1.63
2022-11-08T09:41:55.845Z,1.67
2022-11-08T09:44:31.626Z,2.70
2022-11-08T09:47:04.922Z,4.40
2022-11-08T09:49:35.609Z,1.80
2022-11-08T09:52:05.234Z,1.90
2022-11-08T09:54:35.144Z,1.80
2022-11-08T09:57:05.308Z,1.40
2022-11-08T09:59:38.130Z,1.70
2022-11-08T10:02:17.750Z,2.27
2022-11-08T10:04:47.847Z,2.30
2022-11-08T10:07:21.415Z,1.80
2022-11-08T10:10:04.569Z,1.43
2022-11-08T10:12:35.975Z,2.07
2022-11-08T10:15:12.499Z,1.50
2022-11-08T10:17:59.689Z,1.63
2022-11-08T10:20:34.445Z,1.70
2022-11-08T10:23:07.416Z,1.47
2022-11-08T10:25:38.862Z,1.50
2022-11-08T10:28:08.307Z,1.43
2022-11-08T10:30:38.320Z,1.40
2022-11-08T10:33:16.040Z,1.30
2022-11-08T10:35:46.203Z,1.23
2022-11-08T10:38:19.653Z,1.50
2022-11-08T10:40:51.923Z,1.50
2022-11-08T10:43:23.771Z,1.57
2022-11-08T10:45:52.155Z,1.60
2022-11-08T10:48:21.805Z,1.60
2022-11-08T10:50:51.537Z,1.57
2022-11-08T10:53:23.351Z,1.53
2022-11-08T10:55:52.928Z,1.53
2022-11-08T10:58:34.808Z,1.20
2022-11-08T11:01:04.967Z,1.37
2022-11-08T11:03:34.992Z,2.00
2022-11-08T11:06:03.852Z,1.47
2022-11-08T11:08:32.291Z,1.27
2022-11-08T11:11:17.121Z,1.47
2022-11-08T11:13:45.408Z,1.40
2022-11-08T11:16:16.008Z,1.87
2022-11-08T11:18:50.541Z,1.60
2022-11-08T11:21:19.487Z,1.47
2022-11-08T11:23:48.566Z,1.40
2022-11-08T11:26:22.147Z,1.57
2022-11-08T11:29:00.298Z,1.60
2022-11-08T11:31:28.585Z,1.60
2022-11-08T11:33:58.619Z,1.80
2022-11-08T11:36:29.903Z,1.70
2022-11-08T11:39:03.880Z,1.40
2022-11-08T11:41:35.940Z,1.73
2022-11-08T11:44:06.662Z,1.90
2022-11-08T11:46:41.794Z,1.80
2022-11-08T11:49:15.083Z,1.63
2022-11-08T11:51:43.443Z,1.80
2022-11-08T11:54:13.369Z,2.30
2022-11-08T11:56:44.138Z,2.10
2022-11-08T11:59:37.577Z,2.23
2022-11-08T12:02:16.843Z,1.90
2022-11-08T12:04:57.121Z,1.80
2022-11-08T12:07:26.797Z,1.67
2022-11-08T12:10:02.679Z,1.80
2022-11-08T12:12:36.994Z,1.90
2022-11-08T12:15:06.551Z,1.50
2022-11-08T12:17:44.796Z,1.70
2022-11-08T12:20:35.147Z,1.70
2022-11-08T12:23:13.467Z,1.60
2022-11-08T12:25:44.368Z,2.30
2022-11-08T12:28:20.212Z,1.60
2022-11-08T12:30:50.524Z,1.63
2022-11-08T12:33:23.789Z,1.57
2022-11-08T12:36:00.875Z,1.57
2022-11-08T12:38:33.065Z,1.77
2022-11-08T12:41:06.716Z,1.50
2022-11-08T12:43:41.901Z,1.40
2022-11-08T12:46:13.055Z,1.53
2022-11-08T12:48:51.600Z,1.47
2022-11-08T12:51:26.063Z,1.50
2022-11-08T12:54:10.657Z,1.70
2022-11-08T12:56:41.096Z,1.90
2022-11-08T12:59:17.264Z,1.50
2022-11-08T13:01:47.018Z,1.60
2022-11-08T13:04:26.415Z,1.77
2022-11-08T13:06:58.439Z,1.90
2022-11-08T13:09:35.775Z,2.87
2022-11-08T13:12:11.157Z,1.60
2022-11-08T13:14:41.455Z,1.70
2022-11-08T13:17:17.710Z,1.67
2022-11-08T13:20:01.956Z,1.63
2022-11-08T13:22:47.714Z,1.70
2022-11-08T13:25:37.012Z,1.57
2022-11-08T13:28:20.503Z,2.40
2022-11-08T13:30:49.687Z,1.50
2022-11-08T13:33:23.647Z,1.60
2022-11-08T13:35:58.123Z,1.70
2022-11-08T13:38:31.807Z,1.57
2022-11-08T13:41:14.588Z,2.00
2022-11-08T13:43:42.946Z,1.60
2022-11-08T13:46:30.300Z,1.40
2022-11-08T13:49:06.485Z,1.80
2022-11-08T13:51:39.571Z,1.80
2022-11-08T13:54:35.776Z,1.63
2022-11-08T13:57:05.939Z,1.80
2022-11-08T13:59:55.290Z,2.13
2022-11-08T14:02:47.625Z,1.30
2022-11-08T14:05:29.393Z,1.97
2022-11-08T14:08:12.686Z,1.67
2022-11-08T14:10:41.901Z,2.13
2022-11-08T14:13:19.489Z,1.73
2022-11-08T14:15:53.371Z,2.03
2022-11-08T14:18:25.911Z,2.20
2022-11-08T14:20:54.830Z,1.80
2022-11-08T14:23:27.988Z,1.80
2022-11-08T14:25:57.653Z,1.50
2022-11-08T14:28:29.156Z,1.80
2022-11-08T14:30:58.148Z,1.57
2022-11-08T14:33:27.453Z,1.83
2022-11-08T14:35:57.685Z,2.70
2022-11-08T14:38:26.372Z,2.30
2022-11-08T14:40:55.574Z,2.30
2022-11-08T14:43:24.517Z,1.97
2022-11-08T14:45:54.278Z,2.10
2022-11-08T14:48:24.335Z,2.37
2022-11-08T14:50:59.964Z,2.20
2022-11-08T14:53:29.226Z,1.90
2022-11-08T14:56:12.373Z,2.10
2022-11-08T14:58:40.688Z,1.90
2022-11-08T15:01:11.671Z,1.67
2022-11-08T15:03:40.862Z,2.40
2022-11-08T15:06:14.211Z,1.67
2022-11-08T15:08:49.174Z,2.37
2022-11-08T15:11:28.624Z,2.00
2022-11-08T15:13:59.091Z,2.90
2022-11-08T15:16:28.914Z,2.90
2022-11-08T15:18:57.396Z,2.47
2022-11-08T15:21:30.217Z,3.10
2022-11-08T15:24:07.311Z,3.50
2022-11-08T15:26:36.821Z,3.07
2022-11-08T15:29:08.285Z,2.17
2022-11-08T15:31:41.290Z,2.63
2022-11-08T15:34:20.973Z,2.60
2022-11-08T15:36:49.940Z,2.13
2022-11-08T15:39:24.945Z,2.50
2022-11-08T15:42:03.131Z,2.90
2022-11-08T15:44:31.806Z,2.40
2022-11-08T15:47:01.559Z,2.40
2022-11-08T15:49:30.720Z,2.50
2022-11-08T15:51:59.668Z,2.10
2022-11-08T15:54:28.227Z,2.30
2022-11-08T15:56:57.387Z,2.00
2022-11-08T15:59:27.327Z,2.47
2022-11-08T16:01:56.739Z,2.10
2022-11-08T16:04:26.571Z,2.37
2022-11-08T16:06:54.938Z,2.10
2022-11-08T16:09:23.313Z,2.13
2022-11-08T16:11:51.978Z,2.27
2022-11-08T16:14:21.721Z,2.20
2022-11-08T16:16:50.126Z,2.30
2022-11-08T16:19:21.970Z,2.20
2022-11-08T16:21:52.069Z,1.80
2022-11-08T16:24:20.391Z,2.10
2022-11-08T16:26:48.989Z,1.80
2022-11-08T16:29:21.646Z,2.20
2022-11-08T16:31:50.283Z,2.07
2022-11-08T16:34:19.069Z,2.17
2022-11-08T16:36:47.835Z,2.10
2022-11-08T16:39:18.875Z,2.40
2022-11-08T16:41:47.116Z,1.90
2022-11-08T16:44:15.618Z,2.30
2022-11-08T16:46:44.202Z,2.00
2022-11-08T16:49:18.828Z,2.17
2022-11-08T16:51:47.110Z,2.10
2022-11-08T16:54:17.099Z,2.00
2022-11-08T16:56:46.845Z,2.03
2022-11-08T16:59:15.541Z,2.10
2022-11-08T17:01:44.614Z,2.00
2022-11-08T17:04:13.013Z,2.47
2022-11-08T17:06:41.897Z,2.00
2022-11-08T17:09:10.274Z,1.90
2022-11-08T17:11:39.922Z,2.07
2022-11-08T17:14:09.696Z,2.33
2022-11-08T17:16:37.938Z,2.30
2022-11-08T17:19:06.286Z,2.17
2022-11-08T17:21:49.829Z,2.20
2022-11-08T17:24:21.953Z,2.20
2022-11-08T17:26:58.708Z,1.97
2022-11-08T17:29:27.234Z,2.60
2022-11-08T17:31:55.639Z,2.30
2022-11-08T17:34:27.924Z,1.97
2022-11-08T17:37:00.618Z,2.30
2022-11-08T17:39:36.014Z,2.20
2022-11-08T17:42:06.006Z,2.10
2022-11-08T17:44:34.324Z,2.90
2022-11-08T17:47:05.841Z,2.33
2022-11-08T17:49:36.672Z,2.10
2022-11-08T17:52:07.290Z,2.53
2022-11-08T17:54:35.614Z,3.20
2022-11-08T17:57:04.051Z,2.20
2022-11-08T17:59:33.888Z,2.50
2022-11-08T18:02:02.367Z,2.60
2022-11-08T18:04:30.829Z,2.20
2022-11-08T18:06:59.293Z,3.10
2022-11-08T18:09:27.935Z,2.43
2022-11-08T18:11:57.625Z,2.50
2022-11-08T18:14:28.681Z,2.50
2022-11-08T18:16:59.807Z,2.93
2022-11-08T18:19:28.478Z,2.77
2022-11-08T18:21:56.908Z,2.87
2022-11-08T18:24:25.258Z,2.97
2022-11-08T18:26:55.592Z,2.93
2022-11-08T18:29:23.993Z,2.50
2022-11-08T18:31:52.358Z,2.60
2022-11-08T18:34:22.236Z,2.87
2022-11-08T18:36:50.595Z,2.40
2022-11-08T18:39:20.013Z,2.60
2022-11-08T18:41:48.619Z,2.70
2022-11-08T18:44:16.956Z,2.77
2022-11-08T18:46:45.376Z,2.97
2022-11-08T18:49:14.266Z,2.97
2022-11-08T18:51:44.197Z,2.70
2022-11-08T18:54:12.762Z,2.90
2022-11-08T18:56:41.321Z,3.30
2022-11-08T18:59:09.700Z,2.70
2022-11-08T19:01:38.217Z,2.67
2022-11-08T19:04:07.422Z,3.07
2022-11-08T19:06:35.890Z,3.07
2022-11-08T19:09:05.919Z,2.90
2022-11-08T19:11:34.268Z,2.70
2022-11-08T19:14:02.923Z,2.80
2022-11-08T19:16:31.424Z,2.77
2022-11-08T19:18:59.970Z,3.00
2022-11-08T19:21:29.784Z,3.47
2022-11-08T19:23:59.816Z,3.17
2022-11-08T19:26:30.684Z,3.30
2022-11-08T19:29:00.169Z,2.60
2022-11-08T19:31:28.832Z,2.70
2022-11-08T19:33:57.347Z,2.93
2022-11-08T19:36:26.725Z,3.13
2022-11-08T19:38:55.878Z,3.00
2022-11-08T19:41:25.628Z,3.33
2022-11-08T19:43:56.143Z,2.60
2022-11-08T19:46:26.017Z,2.30
2022-11-08T19:48:54.802Z,2.60
2022-11-08T19:51:23.766Z,2.80
2022-11-08T19:53:52.563Z,3.30
2022-11-08T19:56:29.161Z,3.33
2022-11-08T19:59:09.422Z,3.27
2022-11-08T20:01:39.940Z,3.00
2022-11-08T20:04:09.329Z,2.50
2022-11-08T20:06:38.023Z,2.87
2022-11-08T20:09:07.316Z,2.80
2022-11-08T20:11:36.533Z,2.70
2022-11-08T20:14:05.827Z,2.90
2022-11-08T20:16:38.142Z,2.50
2022-11-08T20:19:07.412Z,2.73
2022-11-08T20:21:38.824Z,2.53
2022-11-08T20:24:07.508Z,2.63
2022-11-08T20:26:38.235Z,3.00
2022-11-08T20:29:07.292Z,2.40
2022-11-08T20:31:37.172Z,2.70
2022-11-08T20:34:09.822Z,2.53
2022-11-08T20:36:38.851Z,2.60
2022-11-08T20:39:08.194Z,2.60
2022-11-08T20:41:37.540Z,2.80
2022-11-08T20:44:06.562Z,3.50
2022-11-08T20:46:35.204Z,2.90
2022-11-08T20:49:05.723Z,2.40
2022-11-08T20:51:34.168Z,2.50
2022-11-08T20:54:02.841Z,2.70
2022-11-08T20:56:31.275Z,2.50
2022-11-08T20:58:59.634Z,2.53
2022-11-08T21:01:29.650Z,2.30
2022-11-08T21:03:58.453Z,2.53
2022-11-08T21:06:32.951Z,2.27
2022-11-08T21:09:25.510Z,2.10
2022-11-08T21:11:57.567Z,2.20
2022-11-08T21:14:26.505Z,2.50
2022-11-08T21:17:21.263Z,2.47
2022-11-08T21:19:51.787Z,2.30
2022-11-08T21:22:21.902Z,3.00
2022-11-08T21:24:50.179Z,2.70
2022-11-08T21:27:18.754Z,2.63
2022-11-08T21:29:51.103Z,2.37
2022-11-08T21:32:25.410Z,2.40
2022-11-08T21:34:53.676Z,2.30
2022-11-08T21:37:23.524Z,2.13
2022-11-08T21:39:51.921Z,2.37
2022-11-08T21:42:20.229Z,1.80
2022-11-08T21:44:48.660Z,2.10
2022-11-08T21:47:17.032Z,1.87
2022-11-08T21:49:45.304Z,2.20
2022-11-08T21:52:13.572Z,2.20
2022-11-08T21:54:43.322Z,2.03
2022-11-08T21:57:11.553Z,2.50
2022-11-08T21:59:39.788Z,2.13
2022-11-08T22:02:08.091Z,2.27
2022-11-08T22:04:36.365Z,2.10
2022-11-08T22:07:04.758Z,2.27
2022-11-08T22:09:33.096Z,1.80
2022-11-08T22:12:02.737Z,2.20
2022-11-08T22:14:31.184Z,2.37
2022-11-08T22:16:59.508Z,2.23
2022-11-08T22:19:27.799Z,2.40
2022-11-08T22:21:56.023Z,2.13
2022-11-08T22:24:24.251Z,1.97
2022-11-08T22:26:53.455Z,2.47
2022-11-08T22:29:23.149Z,2.47
2022-11-08T22:31:52.080Z,2.03
2022-11-08T22:34:20.382Z,2.27
2022-11-08T22:36:49.043Z,1.73
2022-11-08T22:39:19.103Z,2.10
2022-11-08T22:41:48.114Z,2.13
2022-11-08T22:44:16.965Z,1.90
2022-11-08T22:46:47.386Z,1.70
2022-11-08T22:49:16.145Z,1.90
2022-11-08T22:51:44.759Z,2.10
2022-11-08T22:54:13.125Z,2.17
2022-11-08T22:56:41.754Z,2.43
2022-11-08T22:59:10.266Z,2.00
2022-11-08T23:01:38.623Z,2.30
2022-11-08T23:04:11.001Z,2.17
2022-11-08T23:06:39.432Z,2.07
2022-11-08T23:09:08.238Z,2.23
2022-11-08T23:11:54.723Z,2.63
2022-11-08T23:14:40.722Z,2.30
2022-11-08T23:17:09.520Z,2.20
2022-11-08T23:19:56.804Z,2.40
2022-11-08T23:22:43.107Z,2.27
2022-11-08T23:25:11.537Z,2.30
2022-11-08T23:27:57.379Z,2.50
2022-11-08T23:30:43.343Z,2.60
2022-11-08T23:33:11.718Z,2.40
2022-11-08T23:36:01.858Z,1.90
2022-11-08T23:38:30.325Z,2.00
2022-11-08T23:41:17.780Z,2.20
2022-11-08T23:44:03.991Z,2.17
2022-11-08T23:46:32.277Z,2.23
2022-11-08T23:49:00.551Z,2.00
2022-11-08T23:51:30.327Z,2.30
2022-11-08T23:53:58.687Z,2.30
2022-11-08T23:56:27.649Z,1.93
2022-11-08T23:58:57.787Z,2.20
